createdAt,value
2022-11-05T00:01:08.582Z,24.88
2022-11-05T00:03:53.876Z,25.48
2022-11-05T00:06:39.552Z,22.80
2022-11-05T00:09:28.134Z,24.83
2022-11-05T00:12:13.313Z,23.20
2022-11-05T00:14:58.525Z,23.38
2022-11-05T00:17:25.514Z,24.67
2022-11-05T00:19:52.198Z,22.45
2022-11-05T00:22:37.701Z,23.73
2022-11-05T00:25:17.378Z,24.42
2022-11-05T00:27:49.166Z,23.83
2022-11-05T00:30:18.648Z,24.70
2022-11-05T00:32:47.670Z,24.35
2022-11-05T00:35:15.259Z,24.15
2022-11-05T00:37:48.733Z,25.05
2022-11-05T00:40:16.563Z,25.95
2022-11-05T00:43:22.015Z,25.13
2022-11-05T00:45:48.710Z,21.75
2022-11-05T00:48:34.259Z,24.98
2022-11-05T00:51:01.137Z,23.80
2022-11-05T00:53:27.990Z,24.80
2022-11-05T00:55:54.825Z,24.02
2022-11-05T00:58:22.739Z,25.67
2022-11-05T01:00:54.563Z,25.77
2022-11-05T01:03:23.585Z,24.95
2022-11-05T01:05:53.312Z,23.77
2022-11-05T01:08:22.077Z,25.02
2022-11-05T01:10:51.853Z,25.65
2022-11-05T01:13:21.751Z,24.55
2022-11-05T01:15:50.936Z,24.60
2022-11-05T01:18:19.363Z,24.13
2022-11-05T01:20:46.417Z,23.65
2022-11-05T01:23:13.971Z,23.77
2022-11-05T01:25:42.075Z,24.02
2022-11-05T01:28:09.750Z,24.13
2022-11-05T01:30:37.598Z,26.80
2022-11-05T01:33:04.400Z,24.75
2022-11-05T01:35:31.048Z,25.90
2022-11-05T01:37:58.046Z,26.50
2022-11-05T01:40:25.884Z,26.10
2022-11-05T01:42:52.884Z,27.17
2022-11-05T01:45:27.931Z,26.13
2022-11-05T01:48:03.032Z,25.92
2022-11-05T01:50:39.066Z,25.23
2022-11-05T01:53:15.191Z,24.65
2022-11-05T01:55:51.421Z,25.05
2022-11-05T01:58:22.929Z,24.25
2022-11-05T02:00:49.709Z,24.52
2022-11-05T02:03:18.075Z,26.73
2022-11-05T02:05:45.761Z,25.85
2022-11-05T02:08:22.532Z,25.70
2022-11-05T02:10:49.886Z,25.33
2022-11-05T02:13:16.702Z,26.88
2022-11-05T02:16:13.833Z,28.17
2022-11-05T02:19:05.148Z,28.23
2022-11-05T02:21:56.072Z,25.30
2022-11-05T02:24:53.309Z,27.48
2022-11-05T02:27:48.301Z,26.77
2022-11-05T02:30:33.752Z,27.42
2022-11-05T02:33:34.474Z,25.83
2022-11-05T02:36:13.509Z,25.15
2022-11-05T02:38:59.556Z,25.20
2022-11-05T02:41:52.673Z,25.23
2022-11-05T02:44:31.268Z,27.30
2022-11-05T02:47:04.254Z,26.52
2022-11-05T02:50:14.628Z,27.48
2022-11-05T02:52:58.905Z,26.75
2022-11-05T02:55:32.689Z,27.90
2022-11-05T02:58:02.190Z,27.13
2022-11-05T03:00:48.376Z,27.42
2022-11-05T03:03:28.905Z,26.98
2022-11-05T03:06:16.622Z,26.92
2022-11-05T03:08:55.570Z,26.92
2022-11-05T03:11:25.592Z,29.33
2022-11-05T03:14:21.548Z,27.65
2022-11-05T03:17:12.893Z,28.45
2022-11-05T03:19:53.782Z,28.08
2022-11-05T03:22:37.077Z,27.60
2022-11-05T03:25:11.833Z,27.08
2022-11-05T03:27:43.262Z,27.92
2022-11-05T03:30:13.176Z,28.83
2022-11-05T03:32:46.407Z,27.98
2022-11-05T03:35:26.005Z,28.35
2022-11-05T03:37:58.473Z,27.10
2022-11-05T03:40:26.323Z,29.42
2022-11-05T03:42:57.163Z,28.70
2022-11-05T03:45:36.303Z,29.38
2022-11-05T03:48:05.597Z,29.02
2022-11-05T03:51:13.975Z,28.50
2022-11-05T03:53:50.140Z,28.58
2022-11-05T03:56:31.742Z,28.33
2022-11-05T03:59:00.833Z,28.43
2022-11-05T04:01:29.121Z,28.13
2022-11-05T04:03:56.100Z,28.15
2022-11-05T04:06:41.804Z,28.85
2022-11-05T04:09:28.713Z,28.27
2022-11-05T04:12:14.018Z,28.63
2022-11-05T04:14:40.748Z,28.90
2022-11-05T04:17:07.487Z,28.77
2022-11-05T04:19:57.242Z,29.90
2022-11-05T04:22:44.042Z,28.70
2022-11-05T04:25:11.502Z,28.40
2022-11-05T04:27:39.494Z,29.63
2022-11-05T04:30:18.957Z,28.80
2022-11-05T04:33:13.038Z,28.67
2022-11-05T04:35:47.713Z,30.05
2022-11-05T04:38:17.733Z,27.63
2022-11-05T04:40:45.232Z,28.13
2022-11-05T04:43:18.923Z,29.85
2022-11-05T04:45:46.172Z,29.73
2022-11-05T04:48:13.079Z,31.80
2022-11-05T04:50:39.936Z,31.52
2022-11-05T04:53:06.807Z,32.00
2022-11-05T04:55:33.577Z,28.30
2022-11-05T04:58:00.159Z,29.23
2022-11-05T05:00:27.019Z,29.05
2022-11-05T05:02:53.781Z,28.02
2022-11-05T05:05:22.648Z,30.05
2022-11-05T05:07:49.259Z,29.13
2022-11-05T05:10:16.003Z,29.65
2022-11-05T05:12:42.688Z,28.73
2022-11-05T05:15:09.443Z,29.20
2022-11-05T05:17:36.140Z,28.20
2022-11-05T05:20:21.271Z,28.27
2022-11-05T05:22:55.343Z,28.33
2022-11-05T05:25:23.938Z,28.77
2022-11-05T05:27:50.853Z,28.45
2022-11-05T05:30:17.976Z,29.75
2022-11-05T05:32:45.560Z,29.10
2022-11-05T05:35:12.295Z,30.75
2022-11-05T05:37:39.550Z,29.05
2022-11-05T05:40:06.898Z,26.98
2022-11-05T05:42:37.464Z,26.73
2022-11-05T05:45:07.299Z,26.00
2022-11-05T05:47:34.195Z,26.98
2022-11-05T05:50:00.854Z,25.75
2022-11-05T05:52:27.571Z,28.42
2022-11-05T05:54:54.175Z,27.58
2022-11-05T05:57:21.039Z,26.48
2022-11-05T05:59:47.797Z,24.58
2022-11-05T06:02:14.622Z,25.23
2022-11-05T06:04:41.695Z,27.40
2022-11-05T06:07:08.485Z,25.85
2022-11-05T06:09:35.373Z,23.45
2022-11-05T06:12:02.220Z,22.05
2022-11-05T06:14:28.748Z,26.85
2022-11-05T06:16:55.564Z,25.33
2022-11-05T06:19:22.289Z,26.85
2022-11-05T06:21:49.199Z,28.67
2022-11-05T06:24:16.469Z,31.63
2022-11-05T06:26:43.538Z,31.33
2022-11-05T06:29:12.684Z,29.40
2022-11-05T06:31:39.764Z,31.58
2022-11-05T06:34:06.566Z,31.60
2022-11-05T06:36:33.675Z,26.42
2022-11-05T06:39:00.355Z,27.83
2022-11-05T06:41:27.220Z,25.63
2022-11-05T06:43:53.834Z,26.77
2022-11-05T06:46:20.676Z,26.27
2022-11-05T06:48:47.519Z,26.38
2022-11-05T06:51:14.588Z,24.45
2022-11-05T06:53:41.135Z,24.83
2022-11-05T06:56:08.199Z,25.80
2022-11-05T06:58:34.939Z,26.35
2022-11-05T07:01:11.469Z,25.10
2022-11-05T07:09:28.711Z,24.73
2022-11-05T07:11:55.759Z,25.05
2022-11-05T07:14:22.632Z,25.60
2022-11-05T07:16:49.747Z,26.77
2022-11-05T07:19:16.556Z,25.42
2022-11-05T07:21:43.129Z,25.88
2022-11-05T07:24:17.128Z,27.60
2022-11-05T07:26:43.877Z,27.92
2022-11-05T07:29:10.598Z,29.85
2022-11-05T07:31:37.405Z,25.92
2022-11-05T07:34:24.423Z,25.55
2022-11-05T07:36:51.253Z,23.98
2022-11-05T07:39:18.108Z,26.13
2022-11-05T07:41:44.778Z,25.52
2022-11-05T07:44:11.907Z,24.48
2022-11-05T07:46:38.679Z,25.40
2022-11-05T07:49:05.784Z,24.45
2022-11-05T07:51:32.550Z,24.80
2022-11-05T07:53:59.301Z,24.73
2022-11-05T07:56:27.119Z,25.45
2022-11-05T07:58:54.130Z,22.92
2022-11-05T08:01:21.112Z,23.08
2022-11-05T08:03:47.943Z,20.40
2022-11-05T08:06:15.246Z,21.80
2022-11-05T08:08:42.424Z,21.10
2022-11-05T08:11:11.652Z,20.52
2022-11-05T08:13:41.111Z,21.50
2022-11-05T08:16:08.152Z,21.50
2022-11-05T08:18:35.203Z,20.38
2022-11-05T08:21:04.404Z,18.17
2022-11-05T08:23:32.485Z,19.83
2022-11-05T08:25:59.479Z,19.52
2022-11-05T08:28:26.622Z,19.25
2022-11-05T08:30:55.844Z,20.08
2022-11-05T08:33:24.840Z,19.13
2022-11-05T08:35:51.902Z,19.80
2022-11-05T08:38:20.204Z,23.77
2022-11-05T08:40:57.766Z,21.05
2022-11-05T08:43:24.704Z,19.25
2022-11-05T08:45:51.491Z,18.77
2022-11-05T08:48:19.480Z,22.17
2022-11-05T08:50:48.386Z,19.73
2022-11-05T08:53:16.285Z,16.75
2022-11-05T08:55:44.173Z,17.38
2022-11-05T08:58:15.284Z,16.40
2022-11-05T09:00:43.342Z,17.43
2022-11-05T09:03:10.937Z,17.42
2022-11-05T09:05:40.031Z,16.70
2022-11-05T09:08:18.462Z,17.25
2022-11-05T09:10:46.690Z,18.55
2022-11-05T09:13:18.778Z,16.00
2022-11-05T09:15:48.392Z,16.35
2022-11-05T09:18:16.239Z,18.00
2022-11-05T09:20:43.638Z,17.35
2022-11-05T09:23:15.015Z,17.67
2022-11-05T09:25:42.343Z,17.58
2022-11-05T09:28:23.988Z,16.60
2022-11-05T09:30:53.029Z,17.20
2022-11-05T09:36:16.632Z,18.17
2022-11-05T09:38:43.739Z,18.88
2022-11-05T09:41:23.889Z,18.40
2022-11-05T09:44:01.694Z,17.17
2022-11-05T09:46:48.672Z,15.73
2022-11-05T09:49:48.181Z,15.80
2022-11-05T09:52:28.161Z,14.82
2022-11-05T09:54:56.319Z,14.23
2022-11-05T09:57:35.521Z,15.82
2022-11-05T10:00:06.922Z,15.95
2022-11-05T10:02:50.588Z,15.20
2022-11-05T10:05:19.175Z,16.02
2022-11-05T10:07:53.579Z,16.13
2022-11-05T10:10:43.806Z,15.02
2022-11-05T10:13:20.598Z,15.68
2022-11-05T10:15:59.110Z,15.35
2022-11-05T10:18:35.884Z,15.77
2022-11-05T10:21:03.425Z,16.02
2022-11-05T10:23:30.698Z,14.48
2022-11-05T10:26:03.477Z,14.52
2022-11-05T10:28:33.693Z,17.55
2022-11-05T10:36:57.165Z,13.20
2022-11-05T10:39:27.898Z,13.82
2022-11-05T10:42:42.540Z,13.95
2022-11-05T10:45:18.244Z,14.25
2022-11-05T10:47:44.927Z,12.65
2022-11-05T10:50:15.904Z,13.07
2022-11-05T10:53:06.985Z,12.55
2022-11-05T10:55:38.076Z,12.25
2022-11-05T10:58:32.812Z,13.55
2022-11-05T11:00:59.974Z,20.25
2022-11-05T11:03:37.942Z,12.57
2022-11-05T11:06:12.947Z,13.13
2022-11-05T11:08:43.676Z,19.92
2022-11-05T11:11:13.161Z,12.93
2022-11-05T11:14:06.981Z,14.35
2022-11-05T11:16:39.858Z,11.23
2022-11-05T11:19:25.783Z,15.30
2022-11-05T11:22:04.412Z,15.35
2022-11-05T11:24:38.063Z,12.90
2022-11-05T11:27:10.358Z,12.63
2022-11-05T11:29:44.011Z,10.63
2022-11-05T11:32:17.710Z,12.60
2022-11-05T11:34:47.036Z,11.95
2022-11-05T11:37:19.779Z,10.30
2022-11-05T11:39:55.149Z,11.00
2022-11-05T11:42:26.398Z,11.27
2022-11-05T11:44:53.575Z,10.63
2022-11-05T11:47:22.227Z,10.93
2022-11-05T11:49:54.701Z,11.63
2022-11-05T11:52:31.235Z,10.63
2022-11-05T11:55:28.198Z,12.40
2022-11-05T11:58:06.347Z,11.32
2022-11-05T12:00:41.364Z,11.15
2022-11-05T12:03:41.885Z,10.88
2022-11-05T12:06:22.414Z,10.90
2022-11-05T12:09:32.811Z,12.65
2022-11-05T12:12:07.784Z,11.32
2022-11-05T12:14:46.063Z,11.48
2022-11-05T12:17:43.595Z,12.70
2022-11-05T12:20:56.944Z,11.27
2022-11-05T12:23:49.531Z,11.52
2022-11-05T12:26:34.156Z,11.47
2022-11-05T12:29:42.683Z,11.95
2022-11-05T12:32:28.200Z,16.25
2022-11-05T12:35:01.921Z,11.65
2022-11-05T12:37:53.317Z,12.98
2022-11-05T12:40:54.280Z,9.67
2022-11-05T12:43:36.470Z,10.38
2022-11-05T12:48:47.569Z,10.13
2022-11-05T12:51:28.476Z,11.75
2022-11-05T12:54:23.430Z,10.82
2022-11-05T12:56:58.111Z,9.93
2022-11-05T12:59:28.790Z,10.75
2022-11-05T13:02:12.739Z,9.85
2022-11-05T13:05:01.497Z,10.52
2022-11-05T13:07:33.817Z,11.13
2022-11-05T13:10:13.806Z,9.95
2022-11-05T13:12:42.648Z,10.52
2022-11-05T13:15:29.681Z,10.23
2022-11-05T13:18:05.238Z,10.85
2022-11-05T13:20:37.858Z,10.90
2022-11-05T13:23:26.261Z,10.85
2022-11-05T13:25:58.299Z,11.43
2022-11-05T13:31:33.363Z,13.17
2022-11-05T13:34:05.262Z,11.48
2022-11-05T13:37:06.472Z,11.50
2022-11-05T13:39:55.475Z,14.05
2022-11-05T13:43:03.780Z,13.50
2022-11-05T13:46:00.121Z,13.18
2022-11-05T13:49:09.337Z,12.45
2022-11-05T13:51:59.471Z,13.25
2022-11-05T13:54:45.952Z,14.95
2022-11-05T13:57:31.378Z,15.07
2022-11-05T14:00:11.756Z,17.98
2022-11-05T14:02:47.117Z,15.82
2022-11-05T14:05:38.898Z,15.15
2022-11-05T14:08:20.575Z,16.13
2022-11-05T14:11:00.169Z,16.40
2022-11-05T14:13:38.029Z,16.65
2022-11-05T14:16:09.291Z,15.82
2022-11-05T14:18:38.336Z,16.27
2022-11-05T14:21:07.196Z,14.85
2022-11-05T14:23:40.634Z,13.65
2022-11-05T14:26:28.739Z,14.93
2022-11-05T14:29:04.707Z,15.68
2022-11-05T14:34:44.068Z,14.23
2022-11-05T14:37:13.969Z,14.57
2022-11-05T14:39:44.879Z,15.57
2022-11-05T14:42:25.269Z,16.40
2022-11-05T14:45:24.551Z,14.93
2022-11-05T14:47:58.059Z,17.88
2022-11-05T14:50:36.636Z,16.70
2022-11-05T14:53:11.463Z,16.63
2022-11-05T14:55:44.331Z,15.23
2022-11-05T14:58:25.978Z,14.70
2022-11-05T15:00:54.172Z,16.80
2022-11-05T15:03:32.383Z,15.88
2022-11-05T15:06:08.586Z,17.17
2022-11-05T15:09:05.924Z,16.13
2022-11-05T15:11:46.697Z,16.38
2022-11-05T15:14:20.762Z,16.35
2022-11-05T15:16:54.893Z,22.13
2022-11-05T15:19:27.540Z,21.02
2022-11-05T15:21:58.527Z,22.30
2022-11-05T15:24:28.451Z,22.00
2022-11-05T15:27:13.844Z,21.33
2022-11-05T15:29:41.170Z,20.58
2022-11-05T15:32:17.920Z,19.80
2022-11-05T15:34:57.437Z,20.25
2022-11-05T15:37:27.089Z,20.73
2022-11-05T15:39:55.785Z,27.65
2022-11-05T15:42:25.646Z,29.88
2022-11-05T15:44:54.959Z,31.30
2022-11-05T15:47:29.028Z,26.83
2022-11-05T15:50:19.789Z,24.27
2022-11-05T15:52:54.090Z,23.60
2022-11-05T15:55:28.585Z,25.17
2022-11-05T15:58:07.060Z,24.27
2022-11-05T16:00:36.923Z,21.08
2022-11-05T16:03:19.168Z,22.15
2022-11-05T16:08:24.911Z,20.15
2022-11-05T16:10:57.776Z,22.88
2022-11-05T16:13:33.442Z,23.90
2022-11-05T16:16:04.527Z,20.27
2022-11-05T16:18:42.622Z,22.13
2022-11-05T16:21:17.687Z,18.63
2022-11-05T16:23:53.496Z,20.27
2022-11-05T16:29:26.044Z,20.73
2022-11-05T16:31:55.414Z,19.98
2022-11-05T16:34:31.895Z,19.67
2022-11-05T16:36:59.740Z,18.92
2022-11-05T16:39:26.889Z,17.60
2022-11-05T16:41:53.910Z,19.48
2022-11-05T16:44:21.499Z,18.85
2022-11-05T16:46:50.347Z,21.95
2022-11-05T16:49:18.060Z,22.10
2022-11-05T16:51:45.248Z,22.50
2022-11-05T16:54:12.179Z,21.77
2022-11-05T16:56:40.271Z,24.95
2022-11-05T16:59:11.317Z,25.92
2022-11-05T17:01:41.297Z,25.67
2022-11-05T17:04:11.408Z,27.92
2022-11-05T17:06:41.258Z,26.00
2022-11-05T17:09:08.548Z,27.48
2022-11-05T17:11:35.592Z,25.20
2022-11-05T17:14:04.422Z,22.67
2022-11-05T17:16:32.452Z,23.67
2022-11-05T17:19:02.106Z,22.13
2022-11-05T17:21:29.226Z,21.42
2022-11-05T17:23:57.738Z,21.13
2022-11-05T17:26:25.095Z,22.80
2022-11-05T17:28:54.148Z,21.55
2022-11-05T17:31:21.042Z,21.05
2022-11-05T17:33:50.886Z,20.08
2022-11-05T17:36:17.891Z,17.38
2022-11-05T17:38:44.833Z,18.65
2022-11-05T17:41:20.628Z,18.05
2022-11-05T17:43:48.295Z,18.42
2022-11-05T17:46:17.516Z,18.17
2022-11-05T17:48:46.289Z,18.23
2022-11-05T17:51:17.943Z,19.70
2022-11-05T17:53:45.934Z,19.35
2022-11-05T17:56:26.169Z,21.08
2022-11-05T17:58:55.814Z,20.73
2022-11-05T18:01:29.142Z,21.90
2022-11-05T18:03:56.419Z,22.33
2022-11-05T18:06:23.658Z,23.70
2022-11-05T18:08:50.699Z,25.60
2022-11-05T18:11:17.880Z,24.00
2022-11-05T18:13:44.969Z,24.98
2022-11-05T18:16:12.149Z,26.45
2022-11-05T18:18:41.851Z,25.15
2022-11-05T18:21:08.856Z,24.90
2022-11-05T18:23:36.117Z,24.08
2022-11-05T18:26:09.889Z,28.00
2022-11-05T18:28:37.925Z,25.80
2022-11-05T18:31:08.285Z,25.25
2022-11-05T18:33:35.430Z,27.15
2022-11-05T18:36:02.594Z,26.58
2022-11-05T18:38:31.250Z,27.48
2022-11-05T18:40:58.190Z,26.23
2022-11-05T18:43:25.126Z,26.15
2022-11-05T18:45:56.396Z,28.02
2022-11-05T18:48:23.266Z,25.48
2022-11-05T18:50:50.059Z,24.73
2022-11-05T18:53:16.965Z,26.98
2022-11-05T18:55:51.126Z,25.42
2022-11-05T18:58:20.781Z,25.08
2022-11-05T19:00:48.772Z,25.30
2022-11-05T19:03:15.933Z,24.60
2022-11-05T19:05:42.881Z,26.13
2022-11-05T19:08:11.940Z,24.40
2022-11-05T19:10:41.157Z,23.90
2022-11-05T19:13:18.730Z,25.35
2022-11-05T19:15:45.723Z,24.55
2022-11-05T19:18:13.552Z,22.75
2022-11-05T19:20:40.615Z,23.67
2022-11-05T19:23:09.967Z,23.73
2022-11-05T19:25:40.395Z,24.65
2022-11-05T19:28:08.362Z,22.58
2022-11-05T19:30:35.386Z,21.58
2022-11-05T19:33:02.357Z,24.10
2022-11-05T19:35:34.663Z,21.67
2022-11-05T19:38:08.067Z,22.85
2022-11-05T19:40:39.928Z,22.52
2022-11-05T19:43:07.478Z,23.75
2022-11-05T19:45:49.572Z,24.35
2022-11-05T19:48:19.781Z,23.58
2022-11-05T19:50:47.448Z,22.55
2022-11-05T19:53:14.371Z,23.08
2022-11-05T19:55:41.690Z,24.10
2022-11-05T19:58:10.404Z,23.67
2022-11-05T20:00:41.148Z,25.02
2022-11-05T20:03:11.153Z,22.85
2022-11-05T20:05:40.056Z,22.48
2022-11-05T20:08:09.525Z,22.35
2022-11-05T20:10:39.646Z,24.63
2022-11-05T20:13:06.676Z,24.38
2022-11-05T20:15:39.002Z,23.55
2022-11-05T20:18:07.984Z,25.23
2022-11-05T20:20:35.762Z,24.02
2022-11-05T20:23:02.972Z,24.98
2022-11-05T20:25:37.371Z,24.10
2022-11-05T20:28:14.007Z,24.80
2022-11-05T20:30:41.703Z,24.83
2022-11-05T20:33:09.033Z,24.48
2022-11-05T20:35:41.874Z,24.95
2022-11-05T20:38:10.047Z,23.42
2022-11-05T20:40:40.170Z,24.77
2022-11-05T20:43:07.302Z,26.88
2022-11-05T20:45:34.397Z,27.08
2022-11-05T20:48:01.349Z,27.77
2022-11-05T20:50:29.045Z,23.30
2022-11-05T20:52:56.350Z,22.05
2022-11-05T20:55:23.303Z,23.10
2022-11-05T20:57:50.259Z,23.40
2022-11-05T21:00:19.756Z,24.40
2022-11-05T21:02:46.771Z,25.77
2022-11-05T21:05:13.800Z,23.85
2022-11-05T21:07:42.550Z,26.02
2022-11-05T21:10:12.670Z,26.45
2022-11-05T21:12:40.047Z,25.58
2022-11-05T21:15:07.756Z,25.17
2022-11-05T21:17:35.589Z,26.00
2022-11-05T21:20:02.855Z,26.73
2022-11-05T21:22:34.050Z,24.90
2022-11-05T21:25:02.572Z,23.65
2022-11-05T21:27:29.517Z,25.50
2022-11-05T21:29:56.573Z,22.98
2022-11-05T21:32:23.408Z,23.52
2022-11-05T21:34:50.631Z,24.20
2022-11-05T21:37:20.558Z,23.80
2022-11-05T21:39:47.449Z,24.63
2022-11-05T21:42:14.365Z,23.52
2022-11-05T21:44:41.354Z,24.33
2022-11-05T21:47:10.180Z,22.63
2022-11-05T21:49:41.033Z,25.02
2022-11-05T21:52:26.455Z,24.60
2022-11-05T21:55:13.379Z,22.40
2022-11-05T21:58:01.993Z,27.50
2022-11-05T22:00:30.361Z,23.48
2022-11-05T22:03:00.206Z,22.50
2022-11-05T22:05:30.475Z,24.58
2022-11-05T22:07:57.845Z,23.98
2022-11-05T22:10:24.782Z,23.88
2022-11-05T22:12:54.149Z,24.45
2022-11-05T22:15:21.178Z,23.98
2022-11-05T22:17:50.708Z,25.38
2022-11-05T22:20:17.822Z,24.70
2022-11-05T22:22:45.038Z,24.38
2022-11-05T22:25:13.589Z,24.10
2022-11-05T22:27:40.410Z,24.15
2022-11-05T22:30:10.185Z,23.90
2022-11-05T22:32:39.104Z,24.38
2022-11-05T22:35:06.795Z,24.15
2022-11-05T22:37:33.587Z,24.48
2022-11-05T22:40:00.295Z,22.83
2022-11-05T22:42:27.158Z,25.52
2022-11-05T22:44:54.732Z,24.30
2022-11-05T22:47:21.887Z,24.17
2022-11-05T22:49:50.357Z,24.15
2022-11-05T22:52:17.333Z,24.13
2022-11-05T22:54:44.501Z,24.05
2022-11-05T22:57:11.331Z,23.63
2022-11-05T22:59:38.128Z,22.88
2022-11-05T23:02:09.456Z,24.65
2022-11-05T23:04:37.267Z,24.20
2022-11-05T23:07:27.311Z,23.83
2022-11-05T23:10:14.077Z,23.52
2022-11-05T23:12:43.358Z,23.30
2022-11-05T23:15:30.725Z,23.40
2022-11-05T23:18:16.163Z,22.02
2022-11-05T23:21:01.677Z,25.90
2022-11-05T23:23:47.312Z,22.13
2022-11-05T23:26:33.018Z,21.67
2022-11-05T23:28:59.910Z,23.13
2022-11-05T23:31:45.077Z,22.95
2022-11-05T23:34:11.831Z,22.60
2022-11-05T23:36:57.169Z,21.98
2022-11-05T23:39:23.995Z,23.50
2022-11-05T23:42:09.222Z,23.83
2022-11-05T23:44:54.218Z,21.90
2022-11-05T23:47:39.688Z,22.92
2022-11-05T23:50:06.643Z,23.98
2022-11-05T23:52:33.420Z,23.30
2022-11-05T23:55:00.094Z,24.15
2022-11-05T23:57:26.931Z,22.05
2022-11-05T23:59:53.552Z,23.52
